Time;durP1;ratioP1;P1;durP2;ratioP2;P2;SDS_P1;SDS_P2;PMS_P1;PMS_P2;Temp;Humidity;BMP_temperature;BMP_pressure;BME280_temperature;BME280_humidity;BME280_pressure;Samples;Min_cycle;Max_cycle;Signal;HPM_P1;HPM_P2
2022/01/30 00:02:06;;;;;;;114.43;62.35;;;;;;;-4.46;78.65;98156.34;10332615;28;20064;-59
2022/01/30 00:07:06;;;;;;;181.27;88.85;;;;;;;-4.51;77.97;98137.41;10333475;28;20041;-59
2022/01/30 00:12:05;;;;;;;146.07;74.93;;;;;;;-4.62;77.82;98107.25;10333077;28;20065;-59
2022/01/30 00:22:22;;;;;;;184.75;91.97;;;;;;;-4.55;78.37;98120.31;10333070;28;20068;-59
2022/01/30 00:28:02;;;;;;;138.73;69.65;;;;;;;-4.65;79.42;98099.47;10332340;28;20053;-59
2022/01/30 00:32:46;;;;;;;159.30;77.55;;;;;;;-5.22;78.65;97993.72;10330300;28;20125;-59
2022/01/30 00:37:48;;;;;;;118.43;65.50;;;;;;;-4.61;79.53;98101.41;10331768;28;20033;-59
2022/01/30 00:42:47;;;;;;;69.32;36.58;;;;;;;-4.45;78.86;98097.28;10332536;28;20497;-59
2022/01/30 00:47:46;;;;;;;52.13;25.80;;;;;;;-4.32;78.92;98093.88;10331847;28;20022;-59
2022/01/30 00:52:50;;;;;;;81.88;42.22;;;;;;;-4.65;78.13;98027.69;10331638;28;20033;-59
2022/01/30 00:57:49;;;;;;;96.45;49.30;;;;;;;-4.26;78.20;98079.03;10331324;28;20079;-59
2022/01/30 01:02:48;;;;;;;64.32;34.85;;;;;;;-4.54;77.86;98014.00;10331313;28;20079;-59
2022/01/30 01:07:49;;;;;;;;;;;;;;;-4.24;77.33;98047.94;10331961;28;20539;-59
2022/01/30 01:23:27;;;;;;;54.30;28.77;;;;;;;-4.64;77.11;97961.94;10331244;28;20065;-59
2022/01/30 01:28:26;;;;;;;67.68;33.63;;;;;;;-4.16;76.36;98028.16;10331880;28;20061;-59
2022/01/30 01:33:32;;;;;;;67.43;34.33;;;;;;;-4.22;77.17;98021.06;10331306;28;20056;-59
2022/01/30 01:38:31;;;;;;;67.35;34.78;;;;;;;-4.23;77.25;97995.63;10330960;28;20461;-59
2022/01/30 01:43:31;;;;;;;52.83;27.58;;;;;;;-4.35;77.15;97988.16;10331145;28;20476;-59
2022/01/30 01:48:34;;;;;;;58.70;27.20;;;;;;;-4.59;77.12;97952.09;10330852;28;20465;-59
2022/01/30 01:53:34;;;;;;;55.25;28.88;;;;;;;-4.38;76.56;97987.09;10331398;28;20052;-59
2022/01/30 01:58:33;;;;;;;68.30;33.38;;;;;;;-4.40;75.65;97977.72;10330346;28;20438;-59
2022/01/30 02:03:39;;;;;;;53.97;25.48;;;;;;;-4.40;76.57;97957.47;10330236;28;20143;-59
2022/01/30 02:08:46;;;;;;;42.72;22.95;;;;;;;-4.94;75.56;97858.81;10332519;28;20061;-59
2022/01/30 02:24:10;;;;;;;64.90;31.60;;;;;;;-4.52;76.00;97938.13;10337640;28;20061;-59
2022/01/30 02:29:10;;;;;;;45.45;23.83;;;;;;;-4.61;76.82;97906.44;10337144;28;20064;-59
2022/01/30 02:34:09;;;;;;;61.70;31.35;;;;;;;-5.10;75.79;97835.13;10337183;28;20507;-59
2022/01/30 02:39:08;;;;;;;48.60;25.70;;;;;;;-4.45;76.15;97920.00;10337340;28;20491;-59
2022/01/30 02:49:26;;;;;;;58.13;29.95;;;;;;;-4.75;75.50;97833.81;10337198;28;20057;-59
2022/01/30 02:54:27;;;;;;;61.30;29.35;;;;;;;-4.27;76.12;97905.91;10336875;28;20448;-59
2022/01/30 02:59:27;;;;;;;57.90;30.30;;;;;;;-4.27;74.84;97892.38;10335252;28;20564;-59
2022/01/30 03:04:26;;;;;;;48.65;24.63;;;;;;;-4.30;75.82;97882.94;10335854;28;20118;-59
2022/01/30 03:09:25;;;;;;;42.53;20.88;;;;;;;-4.30;75.48;97866.81;10335724;28;20095;-59
2022/01/30 03:14:24;;;;;;;38.03;19.30;;;;;;;-4.24;73.86;97877.31;10335448;28;20405;-59
2022/01/30 03:19:23;;;;;;;41.55;21.85;;;;;;;-4.23;74.62;97877.44;10335972;28;20029;-59
2022/01/30 03:24:21;;;;;;;42.67;21.77;;;;;;;-4.26;73.53;97874.69;10334599;28;20099;-59
2022/01/30 03:29:20;;;;;;;40.00;20.55;;;;;;;-4.31;73.96;97868.50;10334890;28;20452;-59
2022/01/30 03:34:19;;;;;;;35.47;17.85;;;;;;;-4.68;73.65;97815.66;10335043;28;20048;-59
2022/01/30 03:39:18;;;;;;;39.22;22.08;;;;;;;-4.63;73.93;97819.38;10334168;28;20362;-59
2022/01/30 03:44:17;;;;;;;25.27;14.82;;;;;;;-4.23;73.00;97872.38;10333851;28;20037;-59
2022/01/30 03:49:16;;;;;;;29.10;15.82;;;;;;;-4.19;73.02;97884.41;10334335;28;20018;-59
2022/01/30 03:54:15;;;;;;;31.98;16.35;;;;;;;-4.19;72.89;97864.13;10333771;28;20083;-59
2022/01/30 03:59:14;;;;;;;44.83;22.23;;;;;;;-3.99;72.94;97882.16;10333228;28;20022;-59
2022/01/30 04:04:13;;;;;;;55.15;25.58;;;;;;;-4.18;71.86;97835.50;10333306;28;20073;-59
2022/01/30 04:09:12;;;;;;;52.08;27.90;;;;;;;-4.19;71.33;97853.13;10306509;28;20439;-59
2022/01/30 04:14:11;;;;;;;;;;;;;;;-4.16;70.71;97882.84;10333263;28;20052;-59
2022/01/30 04:19:10;;;;;;;19.13;10.75;;;;;;;-4.72;70.32;97782.47;10333373;28;19921;-59
2022/01/30 04:24:09;;;;;;;;;;;;;;;-4.30;70.73;97834.78;10332946;28;20496;-59
2022/01/30 04:29:08;;;;;;;15.75;8.02;;;;;;;-4.43;69.61;97756.34;10332238;28;19917;-59
2022/01/30 04:34:07;;;;;;;;;;;;;;;-3.97;69.47;97774.16;10332890;28;20068;-59
2022/01/30 04:39:31;;;;;;;19.50;9.35;;;;;;;-3.86;68.25;97762.91;10297803;28;19913;-59
2022/01/30 04:55:47;;;;;;;17.42;10.82;;;;;;;-3.40;65.25;97775.56;10291946;28;20520;-59
2022/01/30 05:00:34;;;;;;;21.73;12.00;;;;;;;-3.16;65.03;97765.81;10330532;28;20060;-59
2022/01/30 05:10:44;;;;;;;14.45;7.90;;;;;;;-3.14;63.97;97661.84;10330574;28;20072;-59
2022/01/30 05:15:44;;;;;;;23.85;12.35;;;;;;;-2.95;63.45;97628.97;10331010;28;20064;-59
2022/01/30 05:20:43;;;;;;;46.55;25.48;;;;;;;-2.63;62.31;97683.03;10328676;28;20068;-59
2022/01/30 05:25:43;;;;;;;;;;;;;;;-2.58;62.49;97685.78;10331947;28;20587;-59
2022/01/30 05:30:43;;;;;;;41.47;24.67;;;;;;;-2.81;61.72;97651.66;10329712;28;19940;-59
2022/01/30 05:35:43;;;;;;;53.17;29.90;;;;;;;-2.53;59.38;97695.38;10293726;28;20513;-59
2022/01/30 05:40:42;;;;;;;;;;;;;;;-2.18;59.56;97683.50;10290185;28;20465;-59
2022/01/30 05:45:44;;;;;;;33.00;17.63;;;;;;;-2.45;58.41;97638.97;10294806;28;20368;-59
2022/01/30 05:50:44;;;;;;;8.07;4.32;;;;;;;-1.83;53.46;97699.53;10296092;28;20504;-59
2022/01/30 05:55:43;;;;;;;7.55;3.63;;;;;;;-1.78;51.18;97609.03;10297743;28;20065;-59
2022/01/30 06:00:42;;;;;;;6.60;3.35;;;;;;;-0.96;50.79;97656.72;10337276;28;20029;-59
2022/01/30 06:05:41;;;;;;;17.70;10.93;;;;;;;-0.67;50.34;97662.19;10337100;28;20045;-59
2022/01/30 06:10:40;;;;;;;;;;;;;;;-0.53;50.75;97655.09;10337840;28;20072;-59
2022/01/30 06:15:39;;;;;;;20.67;12.93;;;;;;;-0.48;51.74;97633.22;10337139;28;20020;-59
2022/01/30 06:20:37;;;;;;;18.73;12.50;;;;;;;-0.40;51.62;97614.84;10336436;28;20029;-59
2022/01/30 06:25:36;;;;;;;22.98;13.15;;;;;;;-0.40;50.54;97634.38;10335372;28;20029;-59
2022/01/30 06:30:35;;;;;;;31.00;16.50;;;;;;;-0.29;49.72;97650.13;10335425;28;20026;-59
2022/01/30 06:35:34;;;;;;;58.95;33.63;;;;;;;-0.19;49.68;97637.78;10334431;28;20576;-59
2022/01/30 06:40:33;;;;;;;55.63;34.78;;;;;;;-0.21;49.83;97592.63;10335139;28;20467;-59
2022/01/30 06:45:34;;;;;;;64.15;33.85;;;;;;;0.09;50.31;97610.78;10323864;28;20453;-59
2022/01/30 06:50:33;;;;;;;79.68;42.25;;;;;;;0.10;50.07;97609.09;10320175;28;20056;-59
2022/01/30 06:55:32;;;;;;;91.28;51.30;;;;;;;-0.22;49.75;97516.94;10336106;28;20026;-59
2022/01/30 07:00:31;;;;;;;52.38;32.30;;;;;;;0.02;50.43;97556.09;10303997;28;20087;-59
2022/01/30 07:05:30;;;;;;;32.22;22.02;;;;;;;0.24;50.76;97565.44;10294718;28;20049;-59
2022/01/30 07:10:29;;;;;;;37.20;19.88;;;;;;;0.20;50.64;97522.75;10310950;28;20573;-59
2022/01/30 07:15:28;;;;;;;20.60;12.07;;;;;;;0.73;46.98;97591.81;10335868;28;20038;-59
2022/01/30 07:20:27;;;;;;;49.38;27.95;;;;;;;1.08;42.89;97581.91;10334254;28;20095;-59
2022/01/30 07:25:26;;;;;;;76.18;40.58;;;;;;;1.41;44.65;97591.50;10326839;28;20033;-59
2022/01/30 07:30:25;;;;;;;65.18;35.88;;;;;;;1.16;44.28;97513.19;10317125;28;20508;-59
2022/01/30 07:35:24;;;;;;;56.75;32.10;;;;;;;2.04;44.25;97589.19;10308516;28;20048;-60
2022/01/30 07:40:23;;;;;;;24.35;11.35;;;;;;;2.30;42.99;97586.53;10296366;28;20476;-59
2022/01/30 07:45:24;;;;;;;8.43;3.95;;;;;;;2.53;37.51;97547.06;10307218;28;20523;-59
2022/01/30 07:50:23;;;;;;;14.30;6.20;;;;;;;3.01;39.06;97563.72;10332999;28;20072;-59
2022/01/30 07:55:22;;;;;;;8.75;4.00;;;;;;;3.07;38.92;97506.59;10333797;28;20394;-60
2022/01/30 08:00:21;;;;;;;12.90;4.68;;;;;;;3.62;38.88;97572.03;10317585;28;20030;-60
2022/01/30 08:05:20;;;;;;;4.05;2.65;;;;;;;3.60;35.75;97572.00;10291833;28;20082;-60
2022/01/30 08:10:19;;;;;;;6.10;3.22;;;;;;;3.49;36.51;97487.91;10290699;28;20444;-59
2022/01/30 08:15:18;;;;;;;8.60;4.70;;;;;;;3.89;37.39;97527.28;10292401;28;20517;-60
2022/01/30 08:20:18;;;;;;;36.78;21.27;;;;;;;4.00;39.17;97543.78;10290970;28;20533;-59
2022/01/30 08:25:19;;;;;;;39.13;23.50;;;;;;;3.79;39.61;97532.22;10301438;28;20084;-59
2022/01/30 08:30:19;;;;;;;28.65;19.13;;;;;;;3.31;40.78;97537.06;10331308;28;20069;-59
2022/01/30 08:35:19;;;;;;;29.83;19.52;;;;;;;3.17;41.35;97534.22;10329234;28;20068;-59
2022/01/30 08:40:19;;;;;;;43.22;26.58;;;;;;;3.22;41.51;97553.13;10305487;28;20505;-59
2022/01/30 08:45:20;;;;;;;27.33;15.38;;;;;;;3.52;40.71;97563.25;10301764;28;20073;-59
2022/01/30 08:50:21;;;;;;;24.67;15.55;;;;;;;3.85;41.05;97549.47;10328386;28;20481;-59
2022/01/30 08:55:20;;;;;;;7.38;3.85;;;;;;;4.06;38.28;97536.22;10328684;28;20064;-59
2022/01/30 09:00:19;;;;;;;7.22;3.67;;;;;;;4.66;37.99;97566.53;10331089;28;20505;-60
2022/01/30 09:05:18;;;;;;;;;;;;;;;5.19;35.81;97572.69;10332114;28;20080;-60
2022/01/30 09:10:17;;;;;;;6.00;3.15;;;;;;;5.61;36.07;97544.19;10331570;28;20351;-60
2022/01/30 09:15:17;;;;;;;6.82;3.65;;;;;;;5.59;33.60;97514.13;10331986;28;20509;-60
2022/01/30 09:20:16;;;;;;;9.57;4.03;;;;;;;5.77;34.65;97524.69;10337612;28;20072;-60
2022/01/30 09:25:15;;;;;;;7.82;4.35;;;;;;;5.82;34.54;97505.03;10338226;28;20052;-60
2022/01/30 09:30:14;;;;;;;5.85;3.13;;;;;;;5.92;35.58;97495.72;10325337;28;20112;-58
2022/01/30 09:35:13;;;;;;;10.43;5.25;;;;;;;6.04;33.62;97506.16;10298230;28;20025;-59
2022/01/30 09:40:14;;;;;;;7.03;3.83;;;;;;;5.90;34.25;97454.47;10296930;28;20084;-59
2022/01/30 09:45:15;;;;;;;11.15;6.28;;;;;;;6.18;34.37;97501.19;10338609;28;20057;-58
2022/01/30 09:50:17;;;;;;;6.95;3.58;;;;;;;6.32;34.99;97483.31;10338654;28;20064;-59
2022/01/30 09:55:16;;;;;;;9.15;4.95;;;;;;;6.50;34.89;97469.78;10337918;28;20065;-59
2022/01/30 10:00:16;;;;;;;11.13;5.35;;;;;;;6.69;34.12;97445.88;10338353;28;20065;-58
2022/01/30 10:05:17;;;;;;;11.43;5.00;;;;;;;6.75;34.20;97447.66;10337353;28;20544;-59
2022/01/30 10:10:19;;;;;;;10.45;5.40;;;;;;;6.78;34.95;97430.50;10337598;28;20071;-59
2022/01/30 10:15:18;;;;;;;8.40;4.35;;;;;;;6.82;34.65;97401.31;10299098;28;20061;-59
2022/01/30 10:20:26;;;;;;;7.13;3.45;;;;;;;6.94;34.60;97402.28;10297153;28;20104;-58
2022/01/30 10:25:26;;;;;;;7.55;3.92;;;;;;;7.23;34.79;97398.16;10296950;28;20061;-58
2022/01/30 10:30:25;;;;;;;8.43;4.28;;;;;;;7.64;34.69;97399.31;10331247;28;20072;-59
2022/01/30 10:35:26;;;;;;;7.38;3.58;;;;;;;7.86;35.07;97395.09;10336817;28;20500;-59
2022/01/30 10:40:35;;;;;;;6.00;3.42;;;;;;;7.45;34.42;97305.38;10336916;28;20471;-58
2022/01/30 10:45:34;;;;;;;8.15;3.90;;;;;;;7.85;34.39;97364.94;10333100;28;20077;-59
2022/01/30 10:50:33;;;;;;;5.65;3.13;;;;;;;7.80;34.38;97353.72;10336264;28;20030;-59
2022/01/30 10:55:39;;;;;;;8.10;4.05;;;;;;;8.03;35.20;97357.22;10337266;28;20103;-59
2022/01/30 11:00:41;;;;;;;13.80;5.55;;;;;;;8.16;34.82;97376.22;10335092;28;20125;-58
2022/01/30 11:06:02;;;;;;;8.73;4.72;;;;;;;8.21;34.63;97358.16;10335400;28;20085;-59
2022/01/30 11:21:51;;;;;;;9.82;5.00;;;;;;;8.21;34.61;97363.31;10334928;28;20500;-59
2022/01/30 11:26:51;;;;;;;9.55;4.80;;;;;;;8.07;34.79;97348.63;10332373;28;20068;-58
2022/01/30 11:31:50;;;;;;;10.57;4.10;;;;;;;8.20;34.48;97346.06;10332973;28;20076;-59
2022/01/30 11:36:49;;;;;;;6.28;3.75;;;;;;;8.24;35.37;97322.81;10334405;28;20066;-59
2022/01/30 11:42:11;;;;;;;6.63;3.67;;;;;;;8.32;34.68;97324.53;10331671;28;20506;-60
2022/01/30 11:47:10;;;;;;;9.95;4.82;;;;;;;8.22;34.40;97328.84;10310286;28;20469;-57
2022/01/30 11:52:12;;;;;;;10.95;5.93;;;;;;;8.23;34.65;97330.59;10292922;28;20409;-58
2022/01/30 11:57:23;;;;;;;10.07;5.50;;;;;;;8.13;34.54;97310.72;10291515;28;20470;-58
2022/01/30 12:02:34;;;;;;;11.10;6.22;;;;;;;8.06;34.61;97310.75;10292047;28;20069;-59
2022/01/30 12:07:48;;;;;;;9.07;4.93;;;;;;;8.05;34.98;97301.25;10291393;28;20492;-58
2022/01/30 12:12:59;;;;;;;8.27;4.47;;;;;;;7.85;35.06;97321.88;10291366;28;20065;-59
2022/01/30 12:17:58;;;;;;;6.22;3.53;;;;;;;7.82;35.61;97319.28;10304658;28;20100;-59
2022/01/30 12:22:58;;;;;;;5.60;3.90;;;;;;;7.41;35.86;97270.09;10331351;28;20080;-59
2022/01/30 12:28:00;;;;;;;7.05;3.90;;;;;;;7.09;36.29;97188.22;10330786;28;20508;-59
2022/01/30 12:33:00;;;;;;;8.48;4.47;;;;;;;7.71;36.23;97259.00;10331735;28;20069;-59
2022/01/30 12:37:59;;;;;;;6.03;4.10;;;;;;;7.82;36.31;97253.84;10330647;28;20077;-59
2022/01/30 12:43:02;;;;;;;6.32;3.75;;;;;;;7.75;36.45;97215.97;10332168;28;20044;-59
2022/01/30 12:48:08;;;;;;;9.35;4.63;;;;;;;7.95;35.72;97236.66;10315609;28;20072;-59
2022/01/30 12:53:07;;;;;;;9.85;5.90;;;;;;;8.02;36.14;97241.81;10289400;28;20069;-59
2022/01/30 12:58:07;;;;;;;10.00;5.60;;;;;;;7.92;36.12;97260.78;10289204;28;20058;-61
2022/01/30 13:03:05;;;;;;;;;;;;;;;7.93;36.99;97253.88;10290316;28;20068;-60
2022/01/30 13:08:04;;;;;;;13.85;8.73;;;;;;;7.89;37.67;97263.31;10289823;28;20003;-58
2022/01/30 13:13:05;;;;;;;11.88;6.30;;;;;;;7.72;37.35;97247.81;10289756;28;20053;-58
2022/01/30 13:18:04;;;;;;;8.93;5.43;;;;;;;7.63;37.29;97232.28;10326637;28;20112;-58
2022/01/30 13:23:03;;;;;;;7.22;4.25;;;;;;;7.68;37.43;97228.00;10329935;28;20472;-58
2022/01/30 13:28:03;;;;;;;10.05;5.22;;;;;;;7.75;37.24;97234.88;10346135;28;20507;-58
2022/01/30 13:33:02;;;;;;;7.53;4.28;;;;;;;7.91;37.50;97225.44;10370385;28;20061;-58
2022/01/30 13:38:04;;;;;;;15.52;10.25;;;;;;;8.02;37.51;97228.91;10371292;28;20400;-58
2022/01/30 13:43:12;;;;;;;23.92;12.88;;;;;;;7.93;38.35;97223.72;10369303;28;20390;-58
2022/01/30 13:48:11;;;;;;;22.73;14.07;;;;;;;7.74;38.34;97238.34;10371076;28;20044;-58
2022/01/30 13:53:19;;;;;;;23.65;15.10;;;;;;;7.63;38.46;97233.16;10370581;28;20021;-58
2022/01/30 13:58:20;;;;;;;15.82;9.02;;;;;;;7.40;37.68;97238.25;10371487;28;20057;-58
2022/01/30 14:03:27;;;;;;;17.40;12.20;;;;;;;7.45;38.04;97223.66;10369704;28;20528;-58
2022/01/30 14:08:26;;;;;;;19.48;11.05;;;;;;;7.40;38.27;97230.50;10377867;28;20061;-58
2022/01/30 14:13:29;;;;;;;;;;;;;;;7.35;38.03;97249.38;10379391;28;20506;-60
2022/01/30 14:18:34;;;;;;;10.88;5.90;;;;;;;6.71;37.17;97177.75;10377912;28;20593;-60
2022/01/30 14:23:36;;;;;;;11.35;7.13;;;;;;;6.80;36.79;97203.59;10378418;28;20515;-60
2022/01/30 14:28:35;;;;;;;12.00;6.72;;;;;;;6.86;37.35;97246.59;10377670;28;20052;-60
2022/01/30 14:33:34;;;;;;;16.23;9.35;;;;;;;6.75;36.93;97265.44;10377785;28;20057;-60
2022/01/30 14:38:36;;;;;;;9.25;5.68;;;;;;;6.72;38.01;97254.25;10377320;28;20087;-57
2022/01/30 14:43:35;;;;;;;72.63;40.97;;;;;;;6.31;38.43;97209.31;10377223;28;20057;-57
2022/01/30 14:48:34;;;;;;;31.42;20.08;;;;;;;6.34;38.60;97213.63;10376642;28;20021;-57
2022/01/30 14:53:33;;;;;;;27.70;18.48;;;;;;;6.69;38.71;97280.00;10376256;28;20460;-57
2022/01/30 14:58:32;;;;;;;22.42;14.02;;;;;;;6.52;39.54;97254.13;10376256;28;20036;-57
2022/01/30 15:03:33;;;;;;;43.80;23.33;;;;;;;6.19;38.83;97198.91;10375386;28;20504;-57
2022/01/30 15:08:32;;;;;;;34.92;22.98;;;;;;;6.35;39.79;97244.56;10374525;28;20053;-57
2022/01/30 15:13:36;;;;;;;52.65;33.58;;;;;;;6.16;39.82;97256.44;10374548;28;20076;-57
2022/01/30 15:18:42;;;;;;;62.22;40.72;;;;;;;5.98;40.47;97254.56;10371180;28;20060;-57
2022/01/30 15:23:42;;;;;;;66.13;45.47;;;;;;;5.90;40.23;97258.75;10375966;28;20522;-59
2022/01/30 15:28:41;;;;;;;73.82;48.65;;;;;;;5.55;41.07;97254.16;10375355;28;20056;-60
2022/01/30 15:33:40;;;;;;;64.20;41.88;;;;;;;4.79;41.38;97147.78;10375314;28;20147;-59
2022/01/30 15:38:39;;;;;;;63.15;41.80;;;;;;;5.45;41.94;97287.47;10375232;28;20521;-60
2022/01/30 15:43:39;;;;;;;61.95;38.83;;;;;;;5.27;42.00;97277.81;10376212;28;20029;-59
2022/01/30 15:53:56;;;;;;;68.43;43.88;;;;;;;4.99;43.89;97236.31;10376868;28;20424;-60
2022/01/30 15:58:55;;;;;;;73.65;46.50;;;;;;;5.03;44.58;97262.94;10375083;28;20056;-60
2022/01/30 16:03:54;;;;;;;43.70;29.25;;;;;;;4.89;44.89;97280.72;10374144;28;20483;-60
2022/01/30 16:08:59;;;;;;;31.27;20.75;;;;;;;4.90;45.17;97328.75;10373570;28;20253;-60
2022/01/30 16:19:16;;;;;;;26.75;15.82;;;;;;;4.79;46.82;97294.31;10374451;28;20524;-60
2022/01/30 16:24:15;;;;;;;20.42;12.10;;;;;;;4.81;47.49;97308.91;10374271;28;20029;-59
2022/01/30 16:29:14;;;;;;;30.00;18.75;;;;;;;4.81;48.01;97328.63;10373194;28;20064;-60
2022/01/30 16:34:13;;;;;;;72.07;42.53;;;;;;;4.78;48.72;97338.81;10374307;28;20068;-60
2022/01/30 16:39:12;;;;;;;63.70;44.85;;;;;;;4.55;49.35;97349.63;10373440;28;20503;-59
2022/01/30 16:44:14;;;;;;;101.95;65.78;;;;;;;4.03;49.38;97305.06;10373259;28;20052;-59
2022/01/30 16:49:14;;;;;;;76.28;52.20;;;;;;;4.40;49.28;97362.22;10373707;28;20052;-59
2022/01/30 16:54:13;;;;;;;80.55;54.28;;;;;;;4.31;49.20;97356.91;10372971;28;20564;-59
2022/01/30 16:59:13;;;;;;;70.70;45.90;;;;;;;4.25;49.58;97378.22;10373172;28;20063;-60
2022/01/30 17:04:12;;;;;;;60.25;39.08;;;;;;;4.20;49.98;97385.84;10371382;28;20076;-59
2022/01/30 17:09:23;;;;;;;62.35;40.15;;;;;;;4.08;50.12;97375.38;10372758;28;20385;-59
2022/01/30 17:14:22;;;;;;;70.82;46.95;;;;;;;4.12;50.50;97387.41;10372898;28;20061;-59
2022/01/30 17:19:21;;;;;;;84.57;57.33;;;;;;;3.96;51.96;97387.94;10372816;28;20029;-60
2022/01/30 17:24:21;;;;;;;71.90;47.90;;;;;;;3.89;52.50;97414.34;10372298;28;20079;-60
2022/01/30 17:29:21;;;;;;;32.17;21.10;;;;;;;3.95;50.66;97420.47;10372575;28;20056;-59
2022/01/30 17:34:20;;;;;;;18.20;8.55;;;;;;;3.94;47.66;97402.47;10372207;28;20064;-60
2022/01/30 17:39:20;;;;;;;16.20;5.07;;;;;;;4.50;44.04;97454.91;10375476;28;20496;-60
2022/01/30 17:44:18;;;;;;;11.05;4.95;;;;;;;5.04;43.05;97430.13;10380099;28;20455;-59
2022/01/30 17:49:17;;;;;;;10.82;5.40;;;;;;;5.20;42.75;97444.06;10380092;28;20492;-59
2022/01/30 17:54:16;;;;;;;13.40;7.97;;;;;;;5.33;42.31;97442.56;10379799;28;20042;-60
2022/01/30 17:59:15;;;;;;;17.95;5.93;;;;;;;5.25;41.84;97431.28;10379920;28;20807;-60
2022/01/30 18:04:20;;;;;;;10.48;4.40;;;;;;;5.23;42.50;97448.41;10379358;28;20412;-59
2022/01/30 18:09:19;;;;;;;15.00;6.40;;;;;;;5.32;41.87;97474.25;10379283;28;20060;-60
2022/01/30 18:14:18;;;;;;;26.88;11.68;;;;;;;5.33;42.57;97468.28;10379112;28;20064;-60
2022/01/30 18:19:18;;;;;;;12.98;6.88;;;;;;;5.18;42.88;97427.78;10377876;28;20072;-59
2022/01/30 18:24:17;;;;;;;19.40;8.85;;;;;;;5.21;42.91;97473.25;10377639;28;20086;-60
2022/01/30 18:29:16;;;;;;;27.98;7.35;;;;;;;4.36;42.60;97392.13;10378824;28;20029;-60
2022/01/30 18:34:16;;;;;;;11.88;3.75;;;;;;;4.61;42.50;97488.47;10377694;28;20072;-60
2022/01/30 18:39:22;;;;;;;22.00;7.25;;;;;;;4.79;42.52;97479.38;10376977;28;20474;-60
2022/01/30 18:44:20;;;;;;;22.15;6.10;;;;;;;4.67;43.08;97493.75;10377359;28;20080;-60
2022/01/30 18:49:22;;;;;;;18.92;5.15;;;;;;;4.39;43.21;97440.13;10374932;28;20047;-59
2022/01/30 18:54:21;;;;;;;13.93;4.32;;;;;;;4.66;43.20;97502.28;10377593;28;20068;-60
2022/01/30 18:59:20;;;;;;;10.20;4.22;;;;;;;4.68;43.72;97528.88;10376581;28;20068;-59
2022/01/30 19:04:19;;;;;;;20.42;5.40;;;;;;;4.15;43.80;97443.09;10376199;28;20464;-59
2022/01/30 19:09:19;;;;;;;22.20;9.95;;;;;;;4.60;44.24;97524.47;10375420;28;20460;-59
2022/01/30 19:14:18;;;;;;;;;;;;;;;4.33;42.94;97524.78;10377333;28;20064;-60
2022/01/30 19:19:17;;;;;;;14.30;4.18;;;;;;;4.24;42.45;97516.06;10376476;28;19916;-59
2022/01/30 19:24:16;;;;;;;18.77;8.07;;;;;;;4.16;42.17;97502.19;10376690;28;20056;-60
2022/01/30 19:29:15;;;;;;;16.15;6.00;;;;;;;4.39;42.14;97541.19;10376407;28;20464;-60
2022/01/30 19:34:14;;;;;;;27.35;7.38;;;;;;;4.33;41.27;97537.63;10375484;28;20526;-60
2022/01/30 19:39:13;;;;;;;42.28;17.15;;;;;;;4.44;41.25;97502.75;10376353;28;20033;-60
2022/01/30 19:44:12;;;;;;;35.05;12.05;;;;;;;4.70;41.16;97545.19;10374215;28;20080;-60
2022/01/30 19:49:11;;;;;;;;;;;;;;;4.57;40.79;97548.41;10375536;28;20061;-60
2022/01/30 19:54:10;;;;;;;20.92;4.93;;;;;;;4.53;41.09;97554.31;10375613;28;19959;-59
2022/01/30 19:59:12;;;;;;;28.45;11.73;;;;;;;4.27;41.24;97464.75;10375305;28;20029;-59
2022/01/30 20:04:11;;;;;;;24.40;6.50;;;;;;;4.71;41.25;97534.09;10374444;28;20084;-60
2022/01/30 20:09:10;;;;;;;26.67;5.75;;;;;;;4.71;41.18;97544.38;10375719;28;20040;-60
2022/01/30 20:14:09;;;;;;;25.45;6.82;;;;;;;4.63;40.90;97509.94;10373853;28;20029;-60
2022/01/30 20:19:08;;;;;;;31.40;9.07;;;;;;;4.60;41.54;97540.72;10373721;28;20538;-59
2022/01/30 20:24:07;;;;;;;35.55;10.10;;;;;;;4.48;41.38;97525.09;10374795;28;20477;-60
2022/01/30 20:29:06;;;;;;;28.92;11.50;;;;;;;4.11;41.58;97456.72;10372541;28;20029;-59
2022/01/30 20:34:05;;;;;;;32.83;8.15;;;;;;;4.79;41.43;97525.66;10373319;28;20072;-60
2022/01/30 20:39:06;;;;;;;17.20;5.00;;;;;;;4.53;40.87;97543.16;10373942;28;20029;-59
2022/01/30 20:44:06;;;;;;;25.30;6.00;;;;;;;4.19;40.87;97465.44;10373276;28;20160;-60
2022/01/30 20:49:05;;;;;;;22.63;6.22;;;;;;;4.37;41.55;97476.06;10372513;28;20068;-59
2022/01/30 20:54:04;;;;;;;20.95;4.95;;;;;;;4.66;41.42;97522.84;10372992;28;20060;-59
2022/01/30 20:59:03;;;;;;;30.45;11.25;;;;;;;4.62;41.42;97508.22;10372816;28;20102;-59
2022/01/30 21:04:02;;;;;;;18.73;5.80;;;;;;;4.69;41.47;97498.94;10373088;28;20423;-60
2022/01/30 21:09:05;;;;;;;30.67;7.88;;;;;;;4.47;42.23;97508.78;10373084;28;20590;-60
2022/01/30 21:14:06;;;;;;;20.25;4.13;;;;;;;4.53;41.95;97499.47;10372473;28;20056;-59
2022/01/30 21:19:05;;;;;;;25.23;6.85;;;;;;;4.49;43.19;97517.38;10372508;28;20079;-59
2022/01/30 21:24:05;;;;;;;24.83;6.28;;;;;;;4.44;43.29;97506.16;10373004;28;20551;-59
2022/01/30 21:29:06;;;;;;;19.70;5.32;;;;;;;4.34;43.55;97511.97;10372514;28;20464;-59
2022/01/30 21:34:05;;;;;;;16.00;4.45;;;;;;;3.50;42.80;97395.63;10371815;28;20060;-59
2022/01/30 21:39:04;;;;;;;8.35;2.58;;;;;;;4.16;42.20;97503.91;10372743;28;20064;-59
2022/01/30 21:44:03;;;;;;;9.73;2.85;;;;;;;4.03;42.05;97500.19;10372032;28;20072;-59
2022/01/30 21:49:02;;;;;;;;;;;;;;;4.09;41.92;97510.59;10371076;28;20484;-59
2022/01/30 21:54:01;;;;;;;18.65;4.13;;;;;;;4.15;41.82;97505.59;10372193;28;20298;-59
2022/01/30 21:59:00;;;;;;;17.52;4.07;;;;;;;4.27;42.40;97503.28;10371575;28;20546;-59
2022/01/30 22:03:59;;;;;;;14.18;3.85;;;;;;;4.35;42.06;97503.41;10371690;28;20511;-59
2022/01/30 22:08:59;;;;;;;28.20;8.23;;;;;;;4.32;42.24;97499.94;10369761;28;20067;-59
2022/01/30 22:14:03;;;;;;;26.50;14.52;;;;;;;4.20;41.73;97487.72;10371282;28;20492;-59
2022/01/30 22:19:02;;;;;;;22.67;4.90;;;;;;;4.19;41.76;97509.09;10371306;28;20072;-59
2022/01/30 22:24:01;;;;;;;12.52;5.38;;;;;;;4.01;41.93;97505.31;10371099;28;20043;-59
2022/01/30 22:29:00;;;;;;;17.38;3.00;;;;;;;4.06;42.15;97502.84;10378911;28;20488;-59
2022/01/30 22:33:59;;;;;;;14.10;3.08;;;;;;;3.98;42.83;97501.81;10379035;28;20052;-59
2022/01/30 22:38:58;;;;;;;13.63;3.40;;;;;;;4.04;42.64;97491.69;10378086;28;20043;-59
2022/01/30 22:43:57;;;;;;;10.77;2.67;;;;;;;3.98;42.36;97496.69;10378801;28;20072;-59
2022/01/30 22:48:57;;;;;;;;;;;;;;;4.04;42.41;97484.84;10377761;28;20495;-59
2022/01/30 22:53:56;;;;;;;11.27;2.10;;;;;;;4.01;41.09;97491.59;10377671;28;19955;-59
2022/01/30 22:58:55;;;;;;;12.55;2.42;;;;;;;4.08;41.69;97501.19;10377959;28;20102;-59
2022/01/30 23:03:54;;;;;;;16.52;4.60;;;;;;;4.07;42.02;97502.00;10376282;28;20049;-59
2022/01/30 23:08:53;;;;;;;10.48;2.92;;;;;;;3.90;41.66;97475.13;10375715;28;20057;-59
2022/01/30 23:13:52;;;;;;;14.70;2.88;;;;;;;4.10;42.08;97508.91;10374345;28;20032;-59
2022/01/30 23:18:51;;;;;;;13.93;3.05;;;;;;;4.10;42.45;97509.75;10374143;28;20537;-59
2022/01/30 23:23:50;;;;;;;14.73;3.75;;;;;;;4.12;43.14;97507.22;10374490;28;20051;-59
2022/01/30 23:28:49;;;;;;;11.38;3.42;;;;;;;4.18;43.36;97509.94;10376446;28;20516;-59
2022/01/30 23:33:48;;;;;;;13.52;3.80;;;;;;;4.18;43.47;97510.78;10375742;28;20068;-59
2022/01/30 23:38:47;;;;;;;20.55;4.55;;;;;;;3.74;44.54;97420.91;10375077;28;20069;-59
2022/01/30 23:43:47;;;;;;;10.02;3.80;;;;;;;3.99;45.94;97501.00;10375728;28;20064;-59
2022/01/30 23:48:46;;;;;;;14.68;6.05;;;;;;;4.02;46.83;97504.47;10375049;28;20071;-59
2022/01/30 23:53:45;;;;;;;14.63;6.15;;;;;;;4.03;47.37;97501.09;10374605;28;20063;-59
2022/01/30 23:58:44;;;;;;;14.45;5.57;;;;;;;3.47;47.92;97410.91;10375403;28;20064;-59
